Time;durP1;ratioP1;P1;durP2;ratioP2;P2;SDS_P1;SDS_P2;PMS_P1;PMS_P2;Temp;Humidity;BMP_temperature;BMP_pressure;BME280_temperature;BME280_humidity;BME280_pressure;Samples;Min_cycle;Max_cycle;Signal;HPM_P1;HPM_P2
2023/03/13 00:01:17;;;;;;;24.80;5.53;;;8.60;99.90;;;;;;5051469;28;20049;-67
2023/03/13 00:03:43;;;;;;;26.27;5.47;;;8.60;99.90;;;;;;5049833;28;20044;-67
2023/03/13 00:06:09;;;;;;;18.80;5.22;;;8.60;99.90;;;;;;5051492;28;20094;-67
2023/03/13 00:08:35;;;;;;;26.48;7.50;;;8.60;99.90;;;;;;5049126;28;20048;-67
2023/03/13 00:11:06;;;;;;;31.80;5.43;;;8.50;99.90;;;;;;5047712;28;20127;-67
2023/03/13 00:13:32;;;;;;;25.40;5.32;;;8.50;99.90;;;;;;5066793;28;20040;-67
2023/03/13 00:16:02;;;;;;;25.98;4.93;;;8.50;99.90;;;;;;5071157;28;20461;-67
2023/03/13 00:18:27;;;;;;;23.90;4.55;;;8.50;99.90;;;;;;5071163;28;20044;-67
2023/03/13 00:21:02;;;;;;;26.10;5.22;;;8.50;99.90;;;;;;5071167;28;20456;-67
2023/03/13 00:23:28;;;;;;;27.88;5.53;;;8.50;99.90;;;;;;5070986;28;20044;-67
2023/03/13 00:25:59;;;;;;;22.40;5.00;;;8.50;99.90;;;;;;5071107;28;20036;-67
2023/03/13 00:28:26;;;;;;;27.48;5.05;;;8.50;99.90;;;;;;5071339;28;20040;-67
2023/03/13 00:31:08;;;;;;;26.63;5.03;;;8.50;99.90;;;;;;5070953;28;20049;-67
2023/03/13 00:33:39;;;;;;;25.08;5.22;;;8.50;99.90;;;;;;5071075;28;20036;-67
2023/03/13 00:36:07;;;;;;;28.15;5.57;;;8.50;99.90;;;;;;5070687;28;20032;-68
2023/03/13 00:38:33;;;;;;;30.55;5.65;;;8.50;99.90;;;;;;5071051;28;20044;-67
2023/03/13 00:41:11;;;;;;;30.27;5.68;;;8.50;99.90;;;;;;5070995;28;20103;-67
2023/03/13 00:43:37;;;;;;;18.15;4.88;;;8.50;99.90;;;;;;5070456;28;20563;-67
2023/03/13 00:46:03;;;;;;;25.23;4.55;;;8.50;99.90;;;;;;5070453;28;20045;-67
2023/03/13 00:48:29;;;;;;;21.08;4.25;;;8.50;99.90;;;;;;5070364;28;20767;-67
2023/03/13 00:50:54;;;;;;;23.65;5.95;;;8.50;99.90;;;;;;5070626;28;20050;-67
2023/03/13 00:53:20;;;;;;;20.20;5.07;;;8.40;99.90;;;;;;5069206;28;20063;-68
2023/03/13 00:55:55;;;;;;;21.90;5.10;;;8.40;99.90;;;;;;5070050;28;20056;-67
2023/03/13 00:58:21;;;;;;;28.25;4.60;;;8.40;99.90;;;;;;5070016;28;20037;-67
2023/03/13 01:00:47;;;;;;;25.92;4.85;;;8.40;99.90;;;;;;5069015;28;20170;-67
2023/03/13 01:03:13;;;;;;;22.45;5.93;;;8.40;99.90;;;;;;5070351;28;20127;-67
2023/03/13 01:05:38;;;;;;;18.98;4.82;;;8.40;99.90;;;;;;5069957;28;20040;-67
2023/03/13 01:08:04;;;;;;;21.40;4.38;;;8.40;99.90;;;;;;5070248;28;20045;-67
2023/03/13 01:10:30;;;;;;;30.33;4.75;;;8.40;99.90;;;;;;5069970;28;20543;-67
2023/03/13 01:12:55;;;;;;;17.90;5.75;;;8.40;99.90;;;;;;5069720;28;20409;-67
2023/03/13 01:15:21;;;;;;;23.75;4.93;;;8.40;99.90;;;;;;5069257;28;20048;-67
2023/03/13 01:17:47;;;;;;;19.80;4.25;;;8.40;99.90;;;;;;5069789;28;20044;-68
2023/03/13 01:20:12;;;;;;;21.90;4.57;;;8.40;99.90;;;;;;5069969;28;20052;-67
2023/03/13 01:22:38;;;;;;;21.98;5.15;;;8.40;99.90;;;;;;5070039;28;20040;-67
2023/03/13 01:25:04;;;;;;;32.03;5.25;;;8.40;99.90;;;;;;5069621;28;20042;-67
2023/03/13 01:27:30;;;;;;;18.02;4.75;;;8.40;99.90;;;;;;5069883;28;20041;-68
2023/03/13 01:29:56;;;;;;;25.55;5.25;;;8.40;99.90;;;;;;5069344;28;20044;-67
2023/03/13 01:32:21;;;;;;;27.33;5.60;;;8.50;99.90;;;;;;5069738;28;20046;-67
2023/03/13 01:34:47;;;;;;;19.60;4.57;;;8.40;99.90;;;;;;5069405;28;20071;-67
2023/03/13 01:37:13;;;;;;;32.13;5.15;;;8.50;99.90;;;;;;5069659;28;20032;-67
2023/03/13 01:39:38;;;;;;;24.90;4.75;;;8.40;99.90;;;;;;5069588;28;20029;-67
2023/03/13 01:42:04;;;;;;;20.83;5.03;;;8.50;99.90;;;;;;5069146;28;20459;-67
2023/03/13 01:44:50;;;;;;;23.58;4.75;;;8.40;99.90;;;;;;5069388;28;20043;-66
2023/03/13 01:47:15;;;;;;;23.95;4.50;;;8.50;99.90;;;;;;5069391;28;20454;-65
2023/03/13 01:49:41;;;;;;;27.63;4.78;;;8.50;99.90;;;;;;5069222;28;20036;-66
2023/03/13 01:52:12;;;;;;;22.65;4.65;;;8.50;99.90;;;;;;5069191;28;20528;-68
2023/03/13 01:55:02;;;;;;;23.15;5.82;;;8.50;99.90;;;;;;5069154;28;20385;-67
2023/03/13 01:57:39;;;;;;;25.95;6.00;;;8.50;99.90;;;;;;5069001;28;20040;-67
2023/03/13 02:00:08;;;;;;;23.38;5.68;;;8.50;99.90;;;;;;5069286;28;20094;-68
2023/03/13 02:02:36;;;;;;;12.63;4.05;;;8.50;99.90;;;;;;5069140;28;20048;-67
2023/03/13 02:05:04;;;;;;;30.02;4.85;;;8.50;99.90;;;;;;5069069;28;20036;-67
2023/03/13 02:07:47;;;;;;;20.40;5.25;;;8.60;99.90;;;;;;5069259;28;20045;-67
2023/03/13 02:10:16;;;;;;;19.15;4.68;;;8.60;99.90;;;;;;5069403;28;20056;-68
2023/03/13 02:12:43;;;;;;;16.88;4.43;;;8.60;99.90;;;;;;5067935;28;20044;-67
2023/03/13 02:15:16;;;;;;;27.05;5.43;;;8.60;99.90;;;;;;5069289;28;20083;-67
2023/03/13 02:17:44;;;;;;;21.02;4.35;;;8.60;99.90;;;;;;5068980;28;20036;-67
2023/03/13 02:20:11;;;;;;;15.27;4.88;;;8.60;99.90;;;;;;5069008;28;20712;-67
2023/03/13 02:22:42;;;;;;;22.08;6.10;;;8.50;99.90;;;;;;5069177;28;20055;-67
2023/03/13 02:25:23;;;;;;;20.73;4.82;;;8.60;99.90;;;;;;5068711;28;20044;-67
2023/03/13 02:28:03;;;;;;;18.83;3.90;;;8.50;99.90;;;;;;5067961;28;20044;-67
2023/03/13 02:30:28;;;;;;;16.10;4.93;;;8.50;99.90;;;;;;5069079;28;20047;-67
2023/03/13 02:32:55;;;;;;;17.75;5.15;;;8.50;99.90;;;;;;5068833;28;20036;-67
2023/03/13 02:35:22;;;;;;;17.05;3.97;;;8.50;99.90;;;;;;5068775;28;20033;-68
2023/03/13 02:37:52;;;;;;;16.88;5.45;;;8.50;99.90;;;;;;5068688;28;20047;-67
2023/03/13 02:40:25;;;;;;;16.02;4.10;;;8.50;99.90;;;;;;5068701;28;20044;-67
2023/03/13 02:42:51;;;;;;;;;;;8.60;99.90;;;;;;5069080;28;20564;-67
2023/03/13 02:45:17;;;;;;;14.88;3.47;;;8.60;99.90;;;;;;5068482;28;19975;-68
2023/03/13 02:47:43;;;;;;;14.18;3.22;;;8.60;99.90;;;;;;5068526;28;20592;-68
2023/03/13 02:50:10;;;;;;;10.93;3.50;;;8.60;99.90;;;;;;5068729;28;20119;-68
2023/03/13 02:52:41;;;;;;;12.02;5.05;;;8.60;99.90;;;;;;5068769;28;20036;-68
2023/03/13 02:55:13;;;;;;;12.35;4.80;;;8.60;99.90;;;;;;5068117;28;20052;-68
2023/03/13 02:57:39;;;;;;;18.75;4.43;;;8.60;99.90;;;;;;5068608;28;20042;-68
2023/03/13 03:00:11;;;;;;;17.10;3.88;;;8.70;99.90;;;;;;5068479;28;20123;-68
2023/03/13 03:02:37;;;;;;;14.55;4.13;;;8.70;99.90;;;;;;5068572;28;20045;-68
2023/03/13 03:05:03;;;;;;;13.93;4.05;;;8.60;99.90;;;;;;5068179;28;20113;-68
2023/03/13 03:07:28;;;;;;;13.50;4.10;;;8.70;99.90;;;;;;5068378;28;20072;-68
2023/03/13 03:09:54;;;;;;;10.75;3.67;;;8.70;99.90;;;;;;5068390;28;20102;-68
2023/03/13 03:12:20;;;;;;;11.80;4.40;;;8.70;99.90;;;;;;5068185;28;20036;-68
2023/03/13 03:14:46;;;;;;;9.45;3.55;;;8.80;99.90;;;;;;5067855;28;20040;-68
2023/03/13 03:17:11;;;;;;;18.00;3.72;;;8.80;99.90;;;;;;5068441;28;20037;-68
2023/03/13 03:19:37;;;;;;;10.05;3.45;;;8.80;99.90;;;;;;5068426;28;20041;-68
2023/03/13 03:22:02;;;;;;;9.98;3.65;;;8.80;99.90;;;;;;5068151;28;20140;-68
2023/03/13 03:24:28;;;;;;;11.93;3.35;;;8.90;99.90;;;;;;5068221;28;20067;-68
2023/03/13 03:26:55;;;;;;;9.88;3.60;;;8.90;99.90;;;;;;5068410;28;20729;-68
2023/03/13 03:29:20;;;;;;;6.80;3.58;;;8.90;99.90;;;;;;5068383;28;20119;-67
2023/03/13 03:31:46;;;;;;;9.95;3.15;;;8.90;99.90;;;;;;5067983;28;20037;-67
2023/03/13 03:34:11;;;;;;;10.38;3.08;;;9.00;99.90;;;;;;5067962;28;20040;-67
2023/03/13 03:36:37;;;;;;;4.80;3.00;;;9.00;99.90;;;;;;5068276;28;20045;-67
2023/03/13 03:39:03;;;;;;;6.65;3.33;;;9.00;99.90;;;;;;5070841;28;20037;-67
2023/03/13 03:41:30;;;;;;;8.60;4.45;;;9.10;99.90;;;;;;5071671;28;20044;-67
2023/03/13 03:43:55;;;;;;;9.90;3.60;;;9.10;99.90;;;;;;5071702;28;20044;-67
2023/03/13 03:46:21;;;;;;;9.48;3.72;;;9.10;99.90;;;;;;5071861;28;20067;-67
2023/03/13 03:48:46;;;;;;;8.50;3.83;;;9.20;99.90;;;;;;5071793;28;20516;-67
2023/03/13 03:51:12;;;;;;;5.95;3.47;;;9.10;99.90;;;;;;5071638;28;20131;-68
2023/03/13 03:53:38;;;;;;;8.00;3.78;;;9.20;99.90;;;;;;5071834;28;20040;-67
2023/03/13 03:56:04;;;;;;;5.07;2.90;;;9.20;99.90;;;;;;5071780;28;20485;-67
2023/03/13 03:58:30;;;;;;;5.32;3.00;;;9.20;99.90;;;;;;5071858;28;20032;-67
2023/03/13 04:00:56;;;;;;;7.93;3.55;;;9.20;99.90;;;;;;5071920;28;20547;-67
2023/03/13 04:03:22;;;;;;;10.55;3.83;;;9.20;99.90;;;;;;5071722;28;20057;-67
2023/03/13 04:05:48;;;;;;;5.43;2.92;;;9.20;99.90;;;;;;5071273;28;20401;-67
2023/03/13 04:08:14;;;;;;;7.00;3.60;;;9.30;99.90;;;;;;5069827;28;20036;-67
2023/03/13 04:10:40;;;;;;;5.30;3.45;;;9.40;99.90;;;;;;5071336;28;20045;-67
2023/03/13 04:13:05;;;;;;;6.32;2.83;;;9.40;99.90;;;;;;5070991;28;20036;-67
2023/03/13 04:15:31;;;;;;;9.82;3.28;;;9.40;99.90;;;;;;5069556;28;20040;-67
2023/03/13 04:17:57;;;;;;;5.32;3.25;;;9.50;99.90;;;;;;5071638;28;20405;-66
2023/03/13 04:20:22;;;;;;;7.47;4.30;;;9.50;99.90;;;;;;5071617;28;20044;-67
2023/03/13 04:22:48;;;;;;;7.55;3.15;;;9.50;99.90;;;;;;5070997;28;20037;-67
2023/03/13 04:25:13;;;;;;;6.55;3.25;;;9.60;99.90;;;;;;5070553;28;20171;-67
2023/03/13 04:27:39;;;;;;;7.60;3.47;;;9.60;99.90;;;;;;5070797;28;20044;-68
2023/03/13 04:30:06;;;;;;;4.65;3.58;;;9.60;99.90;;;;;;5070742;28;20041;-68
2023/03/13 04:32:31;;;;;;;6.45;3.05;;;9.60;99.90;;;;;;5071090;28;20045;-68
2023/03/13 04:34:57;;;;;;;7.13;3.13;;;9.70;99.90;;;;;;5070670;28;20409;-68
2023/03/13 04:37:23;;;;;;;10.57;4.07;;;9.70;99.90;;;;;;5070716;28;20497;-67
2023/03/13 04:39:49;;;;;;;7.68;4.07;;;9.70;99.90;;;;;;5070793;28;20044;-68
2023/03/13 04:42:14;;;;;;;9.48;4.00;;;9.80;99.90;;;;;;5070959;28;20117;-67
2023/03/13 04:44:40;;;;;;;6.50;3.92;;;9.80;99.90;;;;;;5070498;28;20657;-68
2023/03/13 04:47:05;;;;;;;6.88;3.65;;;9.80;99.90;;;;;;5070754;28;20040;-68
2023/03/13 04:49:31;;;;;;;4.72;3.60;;;9.90;99.90;;;;;;5069579;28;20032;-68
2023/03/13 04:51:57;;;;;;;6.00;3.90;;;9.80;99.90;;;;;;5070475;28;20040;-68
2023/03/13 04:54:22;;;;;;;6.90;4.28;;;9.90;99.90;;;;;;5068860;28;20550;-68
2023/03/13 04:56:48;;;;;;;5.95;3.38;;;9.90;99.90;;;;;;5070339;28;20060;-68
2023/03/13 04:59:15;;;;;;;8.13;4.25;;;9.90;99.90;;;;;;5070482;28;20067;-68
2023/03/13 05:01:41;;;;;;;7.90;3.92;;;9.90;99.90;;;;;;5066560;28;20390;-68
2023/03/13 05:04:08;;;;;;;5.85;4.15;;;10.00;99.90;;;;;;5050229;28;20194;-68
2023/03/13 05:06:34;;;;;;;5.63;3.85;;;10.00;99.90;;;;;;5050407;28;20098;-68
2023/03/13 05:09:00;;;;;;;6.30;3.83;;;10.00;99.90;;;;;;5050184;28;20417;-68
2023/03/13 05:11:25;;;;;;;5.57;3.92;;;10.00;99.90;;;;;;5049894;28;20130;-68
2023/03/13 05:13:51;;;;;;;5.55;3.92;;;10.00;99.90;;;;;;5049647;28;20040;-68
2023/03/13 05:16:16;;;;;;;5.60;4.03;;;10.10;99.90;;;;;;5050043;28;20060;-68
2023/03/13 05:18:42;;;;;;;5.00;3.72;;;10.10;99.90;;;;;;5049935;28;20056;-68
2023/03/13 05:21:08;;;;;;;16.23;4.78;;;10.20;99.90;;;;;;5049982;28;20131;-68
2023/03/13 05:23:33;;;;;;;6.55;4.03;;;10.10;99.90;;;;;;5049878;28;20033;-68
2023/03/13 05:25:59;;;;;;;7.55;4.10;;;10.20;99.90;;;;;;5049762;28;20084;-68
2023/03/13 05:28:25;;;;;;;4.72;3.75;;;10.20;99.90;;;;;;5049791;28;20124;-67
2023/03/13 05:30:51;;;;;;;6.57;4.57;;;10.30;99.90;;;;;;5050008;28;20124;-67
2023/03/13 05:33:18;;;;;;;7.13;4.93;;;10.30;99.90;;;;;;5047450;28;20464;-68
2023/03/13 05:35:44;;;;;;;9.20;4.63;;;10.30;99.90;;;;;;5053850;28;20041;-68
2023/03/13 05:38:10;;;;;;;8.38;5.07;;;10.30;99.90;;;;;;5049463;28;20036;-67
2023/03/13 05:40:35;;;;;;;7.22;5.10;;;10.30;99.90;;;;;;5049598;28;20379;-67
2023/03/13 05:43:01;;;;;;;8.40;4.35;;;10.30;99.90;;;;;;5049396;28;20810;-67
2023/03/13 05:45:26;;;;;;;11.07;5.50;;;10.40;99.90;;;;;;5049199;28;20417;-67
2023/03/13 05:47:52;;;;;;;10.25;5.45;;;10.40;99.90;;;;;;5048033;28;20124;-67
2023/03/13 05:50:18;;;;;;;10.13;6.25;;;10.40;99.90;;;;;;5049471;28;20037;-67
2023/03/13 05:52:43;;;;;;;10.35;4.88;;;10.40;99.90;;;;;;5049662;28;20036;-67
2023/03/13 05:55:09;;;;;;;8.00;5.53;;;10.40;99.90;;;;;;5049031;28;20056;-68
2023/03/13 05:57:34;;;;;;;7.13;5.15;;;10.50;99.90;;;;;;5049486;28;20072;-68
2023/03/13 06:00:01;;;;;;;9.23;6.03;;;10.50;99.90;;;;;;5049303;28;20478;-68
2023/03/13 06:02:27;;;;;;;9.38;5.53;;;10.60;99.90;;;;;;5047804;28;20040;-67
2023/03/13 06:04:52;;;;;;;9.70;5.57;;;10.60;99.90;;;;;;5049178;28;20047;-68
2023/03/13 06:07:18;;;;;;;9.18;5.63;;;10.60;99.90;;;;;;5049463;28;20108;-68
2023/03/13 06:09:43;;;;;;;8.00;5.72;;;10.60;99.90;;;;;;5049407;28;20036;-68
2023/03/13 06:12:10;;;;;;;12.13;6.68;;;10.70;99.90;;;;;;5049283;28;20064;-68
2023/03/13 06:14:36;;;;;;;14.85;6.45;;;10.60;99.90;;;;;;5048975;28;20128;-68
2023/03/13 06:17:03;;;;;;;13.73;6.10;;;10.70;99.90;;;;;;5049017;28;20041;-68
2023/03/13 06:19:29;;;;;;;9.23;6.13;;;10.70;99.90;;;;;;5048928;28;20453;-68
2023/03/13 06:21:55;;;;;;;10.75;6.85;;;10.70;99.90;;;;;;5048948;28;20098;-68
2023/03/13 06:24:21;;;;;;;11.35;6.05;;;10.80;99.90;;;;;;5048222;28;20087;-66
2023/03/13 06:26:50;;;;;;;12.90;6.60;;;10.80;99.90;;;;;;5047334;28;20109;-68
2023/03/13 06:29:16;;;;;;;10.43;6.43;;;10.90;99.90;;;;;;5028405;28;20037;-68
2023/03/13 06:31:41;;;;;;;15.77;6.32;;;10.90;99.90;;;;;;5048934;28;20047;-68
2023/03/13 06:34:10;;;;;;;13.75;6.50;;;10.90;99.90;;;;;;5047988;28;20066;-68
2023/03/13 06:36:36;;;;;;;14.65;6.63;;;11.00;99.90;;;;;;5047521;28;20040;-68
2023/03/13 06:39:02;;;;;;;13.02;6.65;;;11.00;99.90;;;;;;5047739;28;20405;-68
2023/03/13 06:41:27;;;;;;;16.88;6.13;;;11.00;99.90;;;;;;5047428;28;20064;-68
2023/03/13 06:43:53;;;;;;;14.55;5.70;;;11.10;99.90;;;;;;5047849;28;20512;-68
2023/03/13 06:46:21;;;;;;;16.13;5.82;;;11.10;99.90;;;;;;5048035;28;20054;-68
2023/03/13 06:48:47;;;;;;;9.50;5.57;;;11.10;99.90;;;;;;5047610;28;20047;-68
2023/03/13 06:51:15;;;;;;;15.02;5.78;;;11.10;99.90;;;;;;5048169;28;20045;-69
2023/03/13 06:53:41;;;;;;;20.15;5.82;;;11.10;99.90;;;;;;5048070;28;20041;-69
2023/03/13 06:56:07;;;;;;;14.15;6.13;;;11.20;99.90;;;;;;5048056;28;20124;-68
2023/03/13 06:58:33;;;;;;;15.07;5.75;;;11.20;99.90;;;;;;5048721;28;20048;-68
2023/03/13 07:01:09;;;;;;;14.43;6.03;;;11.20;99.90;;;;;;5048574;28;20052;-68
2023/03/13 07:03:36;;;;;;;16.65;5.60;;;11.20;99.90;;;;;;5048654;28;20049;-67
2023/03/13 07:06:01;;;;;;;15.18;5.70;;;11.30;99.90;;;;;;5047086;28;20037;-68
2023/03/13 07:08:31;;;;;;;16.02;5.43;;;11.30;99.90;;;;;;5046296;28;21929;-70
2023/03/13 07:11:02;;;;;;;12.73;4.65;;;11.30;99.90;;;;;;5047566;28;20505;-69
2023/03/13 07:13:28;;;;;;;15.30;6.63;;;11.30;99.90;;;;;;5049117;28;20057;-69
2023/03/13 07:15:54;;;;;;;12.45;5.72;;;11.40;99.90;;;;;;5052411;28;20083;-69
2023/03/13 07:18:21;;;;;;;11.32;4.55;;;11.40;99.90;;;;;;5052255;28;20528;-69
2023/03/13 07:20:54;;;;;;;10.32;5.18;;;11.40;99.90;;;;;;5052159;28;20771;-68
2023/03/13 07:23:23;;;;;;;8.57;4.85;;;11.40;99.90;;;;;;5052326;28;20072;-68
2023/03/13 07:26:06;;;;;;;11.50;4.25;;;11.40;99.90;;;;;;5052218;28;20056;-68
2023/03/13 07:28:32;;;;;;;14.50;4.35;;;11.40;99.90;;;;;;5052190;28;20041;-68
2023/03/13 07:31:12;;;;;;;14.63;4.22;;;11.40;99.90;;;;;;5050158;28;20090;-68
2023/03/13 07:33:38;;;;;;;12.35;3.78;;;11.50;99.90;;;;;;5050082;28;20037;-67
2023/03/13 07:36:04;;;;;;;10.93;4.10;;;11.50;99.90;;;;;;5053946;28;20025;-67
2023/03/13 07:38:29;;;;;;;5.72;3.72;;;11.60;99.90;;;;;;5045022;28;20061;-68
2023/03/13 07:40:56;;;;;;;9.68;4.32;;;11.60;99.90;;;;;;5051650;28;20605;-68
2023/03/13 07:43:23;;;;;;;10.30;4.68;;;11.60;99.90;;;;;;5052672;28;20045;-68
2023/03/13 07:45:54;;;;;;;13.35;4.15;;;11.60;99.90;;;;;;5049247;28;20037;-68
2023/03/13 07:48:20;;;;;;;13.50;3.72;;;11.60;99.90;;;;;;5051846;28;20094;-67
2023/03/13 07:50:46;;;;;;;5.50;3.35;;;11.60;99.90;;;;;;5051494;28;20389;-68
2023/03/13 07:53:12;;;;;;;6.95;3.67;;;11.70;99.90;;;;;;5051802;28;20045;-66
2023/03/13 07:55:38;;;;;;;8.93;3.20;;;11.60;99.90;;;;;;5051354;28;20087;-66
2023/03/13 07:58:03;;;;;;;7.25;3.67;;;11.70;99.90;;;;;;5051632;28;20087;-66
2023/03/13 08:00:29;;;;;;;12.50;3.45;;;11.70;99.90;;;;;;5051542;28;20116;-66
2023/03/13 08:02:54;;;;;;;8.02;4.45;;;11.70;99.90;;;;;;5052056;28;20490;-68
2023/03/13 08:05:20;;;;;;;12.35;3.28;;;11.80;99.90;;;;;;5051608;28;20502;-68
2023/03/13 08:07:46;;;;;;;10.23;3.35;;;11.70;99.90;;;;;;5051808;28;20103;-68
2023/03/13 08:10:11;;;;;;;7.30;3.17;;;11.80;99.90;;;;;;5051353;28;20128;-68
2023/03/13 08:12:37;;;;;;;8.00;3.55;;;11.80;99.90;;;;;;5048071;28;20037;-68
2023/03/13 08:15:03;;;;;;;8.60;3.55;;;11.80;99.90;;;;;;5051039;28;20065;-67
2023/03/13 08:17:29;;;;;;;7.30;3.22;;;11.70;99.90;;;;;;5051635;28;20041;-67
2023/03/13 08:19:55;;;;;;;7.38;3.47;;;11.70;99.90;;;;;;5051090;28;20033;-67
2023/03/13 08:22:20;;;;;;;5.65;2.88;;;11.70;99.90;;;;;;5051314;28;20088;-68
2023/03/13 08:24:47;;;;;;;6.65;3.03;;;11.70;99.90;;;;;;5049797;28;20040;-68
2023/03/13 08:27:12;;;;;;;5.93;2.97;;;11.70;99.90;;;;;;5051111;28;20559;-68
2023/03/13 08:29:38;;;;;;;8.43;2.92;;;11.80;99.90;;;;;;5050808;28;20033;-68
2023/03/13 08:32:04;;;;;;;4.45;3.00;;;11.80;99.90;;;;;;5050812;28;20125;-67
2023/03/13 08:34:30;;;;;;;7.25;3.25;;;11.80;99.90;;;;;;5050879;28;20052;-68
2023/03/13 08:36:56;;;;;;;9.43;3.05;;;11.80;99.90;;;;;;5051004;28;20037;-68
2023/03/13 08:39:22;;;;;;;3.75;2.65;;;11.80;99.90;;;;;;5049537;28;20037;-68
2023/03/13 08:41:48;;;;;;;6.50;2.72;;;11.80;99.90;;;;;;5046168;28;20036;-67
2023/03/13 08:44:16;;;;;;;4.97;2.80;;;11.80;99.90;;;;;;5050227;28;20511;-70
2023/03/13 08:46:42;;;;;;;5.88;2.45;;;11.90;99.90;;;;;;5049067;28;20041;-69
2023/03/13 08:49:09;;;;;;;5.18;2.50;;;11.80;99.90;;;;;;5050448;28;20043;-69
2023/03/13 08:51:35;;;;;;;4.35;2.67;;;11.80;99.90;;;;;;5050728;28;20049;-67
2023/03/13 08:54:02;;;;;;;3.30;2.25;;;11.90;99.90;;;;;;5050586;28;20040;-66
2023/03/13 08:56:29;;;;;;;5.30;3.05;;;11.90;99.90;;;;;;5050613;28;20126;-66
2023/03/13 08:58:58;;;;;;;7.43;2.67;;;12.00;99.90;;;;;;5050650;28;20041;-66
2023/03/13 09:01:27;;;;;;;11.30;2.15;;;12.10;99.90;;;;;;5050702;28;20094;-66
2023/03/13 09:03:53;;;;;;;4.70;2.20;;;12.20;99.90;;;;;;5050332;28;20056;-67
2023/03/13 09:06:19;;;;;;;7.43;2.40;;;12.30;99.90;;;;;;5050615;28;20045;-66
2023/03/13 09:08:44;;;;;;;7.78;2.95;;;12.30;99.90;;;;;;5050408;28;20044;-66
2023/03/13 09:11:13;;;;;;;5.93;1.92;;;12.50;99.90;;;;;;5050242;28;20517;-66
2023/03/13 09:13:41;;;;;;;4.63;2.10;;;12.60;99.90;;;;;;5050005;28;20115;-66
2023/03/13 09:16:15;;;;;;;4.88;2.30;;;12.50;99.90;;;;;;5050313;28;20051;-65
2023/03/13 09:18:41;;;;;;;5.53;2.50;;;12.50;99.90;;;;;;5037386;28;20061;-65
2023/03/13 09:21:11;;;;;;;3.42;2.35;;;12.60;99.90;;;;;;5038988;28;20045;-65
2023/03/13 09:23:36;;;;;;;4.80;2.15;;;12.60;99.90;;;;;;5037609;28;20079;-66
2023/03/13 09:26:03;;;;;;;3.78;1.50;;;12.60;99.90;;;;;;5040130;28;20078;-65
2023/03/13 09:28:28;;;;;;;5.57;2.25;;;12.60;99.90;;;;;;5035139;28;20045;-66
2023/03/13 09:30:54;;;;;;;6.07;1.90;;;12.60;99.90;;;;;;5028772;28;20160;-65
2023/03/13 09:33:23;;;;;;;5.65;1.48;;;12.70;99.90;;;;;;5029790;28;20486;-65
2023/03/13 09:35:49;;;;;;;4.63;1.92;;;12.70;99.90;;;;;;5029205;28;20091;-65
2023/03/13 09:38:20;;;;;;;4.43;1.70;;;12.60;99.90;;;;;;5034584;28;20763;-65
2023/03/13 09:40:49;;;;;;;3.90;2.17;;;12.60;99.90;;;;;;5046202;28;20037;-65
2023/03/13 09:43:38;;;;;;;3.38;1.73;;;12.60;99.90;;;;;;5049587;28;20413;-65
2023/03/13 09:46:13;;;;;;;6.32;2.00;;;12.50;99.90;;;;;;5043268;28;20120;-65
2023/03/13 09:48:44;;;;;;;3.22;2.30;;;12.50;99.90;;;;;;5049341;28;20493;-65
2023/03/13 09:51:27;;;;;;;5.03;1.60;;;12.50;99.90;;;;;;5049213;28;20506;-65
2023/03/13 09:54:06;;;;;;;4.97;1.67;;;12.60;99.90;;;;;;5041705;28;20074;-66
2023/03/13 09:56:49;;;;;;;10.23;1.50;;;12.60;99.90;;;;;;5049751;28;20405;-65
2023/03/13 09:59:34;;;;;;;3.70;1.80;;;12.70;99.90;;;;;;5049510;28;20126;-65
2023/03/13 10:02:04;;;;;;;3.63;1.60;;;12.70;99.90;;;;;;5048464;28;20083;-65
2023/03/13 10:04:52;;;;;;;3.42;1.77;;;12.70;99.90;;;;;;5049396;28;20041;-65
2023/03/13 10:07:19;;;;;;;6.65;2.40;;;12.70;99.90;;;;;;5049732;28;20049;-65
2023/03/13 10:09:45;;;;;;;7.05;1.70;;;12.80;99.90;;;;;;5049342;28;20409;-65
2023/03/13 10:12:26;;;;;;;4.95;1.40;;;12.80;99.90;;;;;;5048990;28;20048;-66
2023/03/13 10:15:20;;;;;;;7.80;2.05;;;12.80;99.90;;;;;;5040455;28;20064;-65
2023/03/13 10:17:46;;;;;;;5.82;2.13;;;12.80;99.90;;;;;;5039732;28;20124;-66
2023/03/13 10:20:28;;;;;;;6.47;2.58;;;12.80;99.90;;;;;;5067216;28;20131;-65
2023/03/13 10:23:13;;;;;;;4.25;1.40;;;12.90;99.90;;;;;;5069002;28;20047;-67
2023/03/13 10:25:39;;;;;;;6.32;2.90;;;13.00;99.90;;;;;;5068570;28;20028;-65
2023/03/13 10:28:09;;;;;;;10.10;2.05;;;13.10;99.90;;;;;;5068711;28;20377;-68
2023/03/13 10:30:42;;;;;;;4.30;1.92;;;13.10;99.90;;;;;;5068880;28;20049;-66
2023/03/13 10:33:10;;;;;;;9.02;1.92;;;13.10;99.90;;;;;;5068553;28;20083;-67
2023/03/13 10:35:40;;;;;;;3.75;2.10;;;13.10;99.90;;;;;;5068676;28;20041;-66
2023/03/13 10:38:16;;;;;;;5.40;1.63;;;13.10;99.90;;;;;;5068738;28;20382;-67
2023/03/13 10:40:41;;;;;;;6.80;2.00;;;13.20;99.90;;;;;;5057623;28;20090;-66
2023/03/13 10:43:20;;;;;;;4.85;1.85;;;13.10;99.90;;;;;;5048564;28;20049;-66
2023/03/13 10:45:45;;;;;;;9.82;2.03;;;13.10;99.90;;;;;;5048344;28;20063;-67
2023/03/13 10:48:17;;;;;;;6.03;1.90;;;13.10;99.90;;;;;;5047917;28;20045;-66
2023/03/13 10:50:45;;;;;;;7.35;2.13;;;13.10;99.90;;;;;;5048775;28;20057;-66
2023/03/13 10:53:29;;;;;;;6.57;1.92;;;13.20;99.90;;;;;;5048801;28;20460;-67
2023/03/13 10:55:57;;;;;;;7.15;1.85;;;13.20;99.90;;;;;;5048398;28;20045;-66
2023/03/13 10:58:32;;;;;;;8.55;2.10;;;13.20;99.90;;;;;;5042514;28;20033;-67
2023/03/13 11:01:15;;;;;;;6.70;1.80;;;13.20;99.90;;;;;;5044873;28;20117;-66
2023/03/13 11:03:42;;;;;;;5.22;1.80;;;13.20;99.90;;;;;;5043526;28;20033;-66
2023/03/13 11:06:30;;;;;;;3.95;1.77;;;13.20;99.90;;;;;;5046507;28;20126;-66
2023/03/13 11:09:04;;;;;;;4.70;1.60;;;13.20;99.90;;;;;;5045554;28;20430;-66
2023/03/13 11:11:30;;;;;;;4.80;1.83;;;13.30;99.90;;;;;;5044706;28;20119;-66
2023/03/13 11:14:28;;;;;;;2.97;1.70;;;13.40;99.90;;;;;;5040895;28;20119;-66
2023/03/13 11:16:58;;;;;;;11.43;2.20;;;13.60;99.90;;;;;;5014016;28;20110;-66
2023/03/13 11:19:57;;;;;;;4.85;1.52;;;13.60;99.90;;;;;;5043050;28;20083;-66
2023/03/13 11:22:34;;;;;;;4.35;1.60;;;13.70;99.90;;;;;;5043710;28;20049;-66
2023/03/13 11:25:22;;;;;;;4.22;1.58;;;13.70;99.90;;;;;;5041130;28;20075;-66
2023/03/13 11:28:03;;;;;;;8.25;2.72;;;13.80;99.90;;;;;;5040772;28;20033;-67
2023/03/13 11:30:41;;;;;;;5.70;1.40;;;13.90;99.90;;;;;;5052111;28;20055;-68
2023/03/13 11:33:20;;;;;;;3.50;1.50;;;14.00;99.90;;;;;;5048553;28;20075;-67
2023/03/13 11:36:07;;;;;;;8.32;1.48;;;14.00;99.90;;;;;;5049480;28;20041;-65
2023/03/13 11:38:37;;;;;;;2.30;1.20;;;14.10;99.90;;;;;;5044946;28;20098;-65
2023/03/13 11:41:48;;;;;;;6.88;1.45;;;14.10;99.90;;;;;;5048084;28;20041;-65
2023/03/13 11:44:28;;;;;;;3.60;1.25;;;14.20;99.90;;;;;;4988229;28;20362;-65
2023/03/13 11:47:02;;;;;;;3.53;1.95;;;14.30;99.90;;;;;;4989401;28;20208;-65
2023/03/13 11:49:40;;;;;;;2.53;1.15;;;14.40;99.90;;;;;;5025577;28;20418;-66
2023/03/13 11:52:17;;;;;;;4.15;1.30;;;14.50;99.90;;;;;;5049588;28;20049;-66
2023/03/13 11:55:01;;;;;;;4.53;1.30;;;14.70;99.90;;;;;;5045043;28;20044;-65
2023/03/13 11:57:38;;;;;;;5.00;1.70;;;14.80;99.90;;;;;;5049086;28;20037;-65
2023/03/13 12:00:23;;;;;;;4.00;1.23;;;14.90;99.90;;;;;;5053824;28;20044;-65
2023/03/13 12:02:57;;;;;;;4.68;1.60;;;14.90;99.90;;;;;;5044841;28;20405;-65
2023/03/13 12:05:24;;;;;;;3.75;1.30;;;15.00;99.90;;;;;;5055113;28;20048;-65
2023/03/13 12:07:58;;;;;;;3.00;1.42;;;15.10;99.90;;;;;;5046364;28;20045;-65
2023/03/13 12:10:26;;;;;;;2.88;1.40;;;15.00;99.90;;;;;;5044379;28;20045;-65
2023/03/13 12:13:01;;;;;;;4.15;1.60;;;15.20;99.90;;;;;;5048238;28;20839;-66
2023/03/13 12:15:33;;;;;;;6.70;1.35;;;15.20;99.90;;;;;;5046609;28;20088;-65
2023/03/13 12:18:18;;;;;;;2.47;1.20;;;15.30;99.90;;;;;;5045824;28;20040;-65
2023/03/13 12:21:00;;;;;;;4.80;1.38;;;15.20;99.90;;;;;;5046266;28;20074;-65
2023/03/13 12:23:45;;;;;;;6.07;1.52;;;15.20;99.90;;;;;;5045949;28;20056;-65
2023/03/13 12:26:19;;;;;;;6.15;1.65;;;15.40;99.90;;;;;;5037798;28;20049;-65
2023/03/13 12:29:13;;;;;;;5.38;1.70;;;15.40;99.90;;;;;;5032565;28;20112;-66
2023/03/13 12:31:58;;;;;;;5.88;1.48;;;15.40;99.90;;;;;;5032549;28;20406;-65
2023/03/13 12:34:36;;;;;;;5.13;1.48;;;15.50;99.90;;;;;;5041313;28;20040;-65
2023/03/13 12:37:23;;;;;;;7.38;1.40;;;15.50;99.90;;;;;;5072587;28;20037;-65
2023/03/13 12:40:01;;;;;;;4.15;1.58;;;15.50;99.90;;;;;;5072537;28;20040;-66
2023/03/13 12:42:58;;;;;;;5.47;1.02;;;15.50;99.90;;;;;;5072131;28;20532;-65
2023/03/13 12:45:25;;;;;;;8.05;2.03;;;15.50;99.90;;;;;;5069544;28;20060;-65
2023/03/13 12:47:59;;;;;;;2.67;1.20;;;15.60;99.90;;;;;;5072020;28;20047;-65
2023/03/13 12:50:46;;;;;;;5.30;1.50;;;15.50;99.90;;;;;;5072191;28;20044;-65
2023/03/13 12:53:31;;;;;;;4.03;1.17;;;15.50;99.90;;;;;;5072271;28;20432;-65
2023/03/13 12:56:15;;;;;;;5.25;2.45;;;15.50;99.90;;;;;;5071986;28;20118;-66
2023/03/13 12:58:47;;;;;;;2.97;1.10;;;15.50;99.90;;;;;;5062782;28;20086;-66
2023/03/13 13:01:20;;;;;;;5.72;1.52;;;15.70;99.90;;;;;;5053524;28;20036;-65